Time;durP1;ratioP1;P1;durP2;ratioP2;P2;SDS_P1;SDS_P2;PMS_P1;PMS_P2;Temp;Humidity;BMP_temperature;BMP_pressure;BME280_temperature;BME280_humidity;BME280_pressure;Samples;Min_cycle;Max_cycle;Signal;HPM_P1;HPM_P2
2022/02/25 00:01:06;;;;;;;0.30;0.30;;;10.60;91.50;;;;;;5030153;28;20414;-60
2022/02/25 00:03:31;;;;;;;0.30;0.30;;;10.60;91.50;;;;;;5012181;28;20030;-61
2022/02/25 00:05:57;;;;;;;0.20;0.20;;;10.60;91.50;;;;;;5040276;28;20048;-61
2022/02/25 00:08:22;;;;;;;0.63;0.50;;;10.60;91.50;;;;;;5037454;28;20036;-60
2022/02/25 00:10:48;;;;;;;5.07;0.50;;;10.60;91.50;;;;;;5032916;28;20364;-60
2022/02/25 00:13:14;;;;;;;1.30;0.40;;;10.60;91.30;;;;;;5030876;28;20434;-60
2022/02/25 00:15:39;;;;;;;0.95;0.28;;;10.60;91.40;;;;;;5023014;28;20052;-60
2022/02/25 00:18:05;;;;;;;2.08;0.40;;;10.60;91.40;;;;;;5026196;28;20037;-60
2022/02/25 00:20:31;;;;;;;7.13;0.50;;;10.60;91.30;;;;;;5021176;28;20024;-60
2022/02/25 00:22:56;;;;;;;0.50;0.30;;;10.60;91.40;;;;;;5029458;28;20033;-60
2022/02/25 00:25:29;;;;;;;1.25;0.47;;;10.60;91.30;;;;;;5033882;28;20087;-60
2022/02/25 00:27:55;;;;;;;0.70;0.28;;;10.60;91.40;;;;;;5022014;28;20405;-60
2022/02/25 00:30:21;;;;;;;0.40;0.40;;;10.60;91.30;;;;;;5037658;28;20512;-60
2022/02/25 00:32:46;;;;;;;0.30;0.30;;;10.60;91.40;;;;;;5020409;28;20033;-60
2022/02/25 00:35:12;;;;;;;0.60;0.60;;;10.60;91.20;;;;;;5042633;28;20032;-60
2022/02/25 00:37:38;;;;;;;0.45;0.40;;;10.60;91.30;;;;;;5022196;28;20033;-60
2022/02/25 00:40:09;;;;;;;0.30;0.30;;;10.60;91.30;;;;;;5018860;28;20490;-60
2022/02/25 00:42:34;;;;;;;0.30;0.30;;;10.50;91.20;;;;;;5029909;28;20029;-60
2022/02/25 00:45:00;;;;;;;0.30;0.30;;;10.60;91.20;;;;;;5002863;28;20036;-61
2022/02/25 00:47:26;;;;;;;0.30;0.30;;;10.50;91.50;;;;;;5040106;28;20029;-60
2022/02/25 00:49:52;;;;;;;0.40;0.40;;;10.60;91.10;;;;;;5013932;28;20041;-60
2022/02/25 00:52:17;;;;;;;2.70;0.70;;;10.50;91.30;;;;;;5018188;28;20032;-60
2022/02/25 00:54:44;;;;;;;3.55;0.40;;;10.60;91.20;;;;;;5036933;28;20100;-60
2022/02/25 00:57:10;;;;;;;1.90;0.50;;;10.60;91.30;;;;;;5020586;28;20026;-60
2022/02/25 00:59:35;;;;;;;3.15;0.70;;;10.50;91.10;;;;;;5015213;28;20437;-61
2022/02/25 01:02:01;;;;;;;0.30;0.30;;;10.50;91.30;;;;;;5021060;28;20052;-61
2022/02/25 01:04:28;;;;;;;0.50;0.50;;;10.50;91.20;;;;;;5018185;28;20034;-60
2022/02/25 01:06:54;;;;;;;0.40;0.40;;;10.50;91.20;;;;;;5018957;28;20051;-60
2022/02/25 01:09:19;;;;;;;0.75;0.50;;;10.50;91.20;;;;;;5013167;28;20474;-61
2022/02/25 01:11:45;;;;;;;0.50;0.50;;;10.50;91.20;;;;;;5033385;28;20030;-61
2022/02/25 01:14:10;;;;;;;0.63;0.50;;;10.50;91.30;;;;;;5038214;28;20065;-60
2022/02/25 01:16:36;;;;;;;0.55;0.55;;;10.50;91.10;;;;;;5045029;28;20378;-60
2022/02/25 01:19:02;;;;;;;1.85;0.40;;;10.50;91.20;;;;;;5045631;28;20029;-61
2022/02/25 01:21:28;;;;;;;1.45;0.40;;;10.50;91.20;;;;;;5014964;28;20037;-60
2022/02/25 01:23:54;;;;;;;1.60;0.52;;;10.50;91.10;;;;;;5013125;28;20073;-60
2022/02/25 01:26:20;;;;;;;4.13;0.60;;;10.50;91.10;;;;;;5019643;28;20029;-60
2022/02/25 01:28:45;;;;;;;0.80;0.70;;;10.50;91.50;;;;;;5028322;28;20501;-61
2022/02/25 01:31:11;;;;;;;1.90;0.50;;;10.50;91.10;;;;;;5035616;28;20021;-61
2022/02/25 01:33:37;;;;;;;3.92;0.32;;;10.50;91.10;;;;;;5029628;28;20021;-60
2022/02/25 01:36:03;;;;;;;0.40;0.40;;;10.50;91.10;;;;;;5023085;28;20473;-60
2022/02/25 01:38:29;;;;;;;3.53;0.68;;;10.50;91.10;;;;;;5025251;28;20041;-60
2022/02/25 01:40:55;;;;;;;0.43;0.43;;;10.50;91.10;;;;;;5033620;28;20053;-60
2022/02/25 01:43:24;;;;;;;0.40;0.40;;;10.50;91.00;;;;;;5021339;28;20032;-61
2022/02/25 01:45:52;;;;;;;2.03;0.75;;;10.40;91.00;;;;;;5037482;28;20033;-60
2022/02/25 01:48:19;;;;;;;0.30;0.30;;;10.40;91.00;;;;;;5021177;28;20034;-61
2022/02/25 01:50:45;;;;;;;0.47;0.47;;;10.50;91.10;;;;;;5040690;28;20037;-61
2022/02/25 01:53:11;;;;;;;0.35;0.35;;;10.50;91.00;;;;;;5037766;28;20028;-61
2022/02/25 01:55:39;;;;;;;0.90;0.32;;;10.40;91.00;;;;;;5031946;28;20029;-60
2022/02/25 01:58:06;;;;;;;1.10;0.52;;;10.40;91.00;;;;;;5036542;28;20029;-60
2022/02/25 02:00:33;;;;;;;1.08;0.60;;;10.50;91.00;;;;;;5032366;28;20022;-60
2022/02/25 02:02:59;;;;;;;1.65;0.50;;;10.50;90.90;;;;;;5038991;28;20022;-59
2022/02/25 02:05:25;;;;;;;0.40;0.40;;;10.50;90.80;;;;;;5038606;28;20025;-60
2022/02/25 02:07:52;;;;;;;3.13;0.50;;;10.50;90.90;;;;;;5032882;28;20017;-61
2022/02/25 02:10:18;;;;;;;0.75;0.60;;;10.40;90.90;;;;;;5033529;28;20035;-60
2022/02/25 02:12:44;;;;;;;0.50;0.50;;;10.40;90.80;;;;;;5038242;28;20401;-60
2022/02/25 02:15:11;;;;;;;0.73;0.52;;;10.40;90.80;;;;;;5021736;28;20116;-61
2022/02/25 02:17:37;;;;;;;0.38;0.38;;;10.40;90.90;;;;;;5032750;28;20033;-60
2022/02/25 02:20:05;;;;;;;0.50;0.50;;;10.40;90.90;;;;;;5044081;28;20504;-60
2022/02/25 02:22:30;;;;;;;1.00;0.50;;;10.40;90.90;;;;;;5031182;28;20030;-60
2022/02/25 02:24:56;;;;;;;2.30;0.60;;;10.40;90.90;;;;;;5040768;28;20033;-60
2022/02/25 02:27:22;;;;;;;0.65;0.50;;;10.40;91.00;;;;;;5038399;28;20026;-60
2022/02/25 02:29:48;;;;;;;3.97;0.60;;;10.40;91.00;;;;;;5027588;28;20032;-60
2022/02/25 02:32:13;;;;;;;0.88;0.50;;;10.40;90.90;;;;;;5037818;28;20080;-60
2022/02/25 02:34:39;;;;;;;0.70;0.50;;;10.40;90.90;;;;;;5040539;28;20040;-59
2022/02/25 02:37:10;;;;;;;2.85;0.60;;;10.40;91.00;;;;;;5019776;28;20111;-60
2022/02/25 02:39:36;;;;;;;0.65;0.40;;;10.40;91.00;;;;;;5026278;28;20033;-60
2022/02/25 02:42:02;;;;;;;0.30;0.30;;;10.40;90.80;;;;;;5018605;28;20025;-60
2022/02/25 02:44:28;;;;;;;0.90;0.63;;;10.40;90.90;;;;;;5040663;28;20386;-60
2022/02/25 02:46:53;;;;;;;0.63;0.50;;;10.40;91.30;;;;;;5039802;28;20033;-60
2022/02/25 02:49:19;;;;;;;2.92;0.73;;;10.40;91.00;;;;;;5038925;28;20033;-60
2022/02/25 02:51:44;;;;;;;0.82;0.60;;;10.40;90.80;;;;;;5025341;28;20100;-60
2022/02/25 02:54:10;;;;;;;1.02;0.50;;;10.40;91.00;;;;;;5027964;28;20090;-61
2022/02/25 02:56:36;;;;;;;1.45;0.60;;;10.40;90.90;;;;;;5036795;28;20033;-59
2022/02/25 02:59:02;;;;;;;2.80;0.70;;;10.40;90.90;;;;;;5041989;28;20044;-60
2022/02/25 03:01:32;;;;;;;1.55;0.63;;;10.40;90.90;;;;;;5036276;28;20477;-59
2022/02/25 03:04:00;;;;;;;3.63;0.68;;;10.40;90.70;;;;;;5038750;28;20032;-60
2022/02/25 03:06:27;;;;;;;2.25;0.52;;;10.40;90.80;;;;;;5040393;28;20382;-60
2022/02/25 03:08:54;;;;;;;2.55;0.57;;;10.40;90.90;;;;;;5038672;28;20539;-60
2022/02/25 03:11:20;;;;;;;2.85;0.50;;;10.30;90.80;;;;;;5024107;28;20117;-60
2022/02/25 03:13:46;;;;;;;1.05;0.52;;;10.40;90.70;;;;;;5035693;28;20112;-61
2022/02/25 03:16:11;;;;;;;0.50;0.50;;;10.30;90.70;;;;;;5021625;28;20382;-61
2022/02/25 03:18:38;;;;;;;1.83;0.35;;;10.40;90.70;;;;;;5033979;28;20033;-60
2022/02/25 03:21:04;;;;;;;3.58;0.60;;;10.40;90.70;;;;;;5041002;28;20028;-60
2022/02/25 03:23:30;;;;;;;1.35;0.55;;;10.40;90.60;;;;;;5033620;28;20040;-60
2022/02/25 03:25:56;;;;;;;2.30;0.63;;;10.40;90.60;;;;;;5036057;28;20040;-60
2022/02/25 03:28:21;;;;;;;0.30;0.30;;;10.40;90.90;;;;;;5038899;28;20025;-60
2022/02/25 03:30:47;;;;;;;1.35;0.70;;;10.30;90.70;;;;;;5042804;28;20090;-60
2022/02/25 03:33:13;;;;;;;2.45;0.45;;;10.40;90.60;;;;;;5040366;28;20467;-60
2022/02/25 03:35:39;;;;;;;0.43;0.40;;;10.30;90.60;;;;;;5040941;28;20108;-60
2022/02/25 03:38:04;;;;;;;3.60;0.90;;;10.30;90.50;;;;;;5039533;28;20410;-60
2022/02/25 03:40:30;;;;;;;0.93;0.63;;;10.30;90.50;;;;;;5021432;28;20135;-60
2022/02/25 03:42:56;;;;;;;1.85;0.70;;;10.30;90.50;;;;;;5036495;28;20052;-60
2022/02/25 03:45:22;;;;;;;3.88;0.55;;;10.30;90.50;;;;;;5040076;28;20035;-60
2022/02/25 03:47:48;;;;;;;2.45;0.65;;;10.30;90.50;;;;;;5038509;28;20105;-60
2022/02/25 03:50:14;;;;;;;1.17;0.57;;;10.40;90.70;;;;;;5028167;28;20092;-60
2022/02/25 03:52:39;;;;;;;0.45;0.40;;;10.40;90.50;;;;;;5022512;28;20389;-60
2022/02/25 03:55:06;;;;;;;0.40;0.40;;;10.30;90.40;;;;;;5042884;28;20086;-60
2022/02/25 03:57:32;;;;;;;2.72;0.65;;;10.30;90.60;;;;;;5042587;28;20107;-60
2022/02/25 04:00:00;;;;;;;1.05;0.43;;;10.30;90.40;;;;;;5020137;28;20474;-61
2022/02/25 04:02:26;;;;;;;0.80;0.63;;;10.30;90.40;;;;;;5031280;28;20059;-60
2022/02/25 04:04:52;;;;;;;0.85;0.57;;;10.30;90.40;;;;;;5023851;28;20483;-60
2022/02/25 04:07:18;;;;;;;4.70;0.68;;;10.30;90.50;;;;;;5024591;28;20028;-60
2022/02/25 04:09:44;;;;;;;0.68;0.52;;;10.30;90.40;;;;;;5038361;28;20042;-60
2022/02/25 04:12:10;;;;;;;0.30;0.30;;;10.30;90.30;;;;;;5035821;28;20037;-60
2022/02/25 04:14:38;;;;;;;2.70;0.40;;;10.30;90.40;;;;;;5012707;28;20053;-60
2022/02/25 04:17:04;;;;;;;4.60;0.60;;;10.30;90.70;;;;;;5026934;28;20025;-60
2022/02/25 04:19:30;;;;;;;0.88;0.70;;;10.30;90.40;;;;;;5031505;28;20033;-60
2022/02/25 04:21:57;;;;;;;4.20;0.90;;;10.30;90.40;;;;;;5033804;28;20382;-60
2022/02/25 04:24:22;;;;;;;0.85;0.50;;;10.20;90.30;;;;;;5036380;28;20179;-60
2022/02/25 04:49:54;;;;;;;0.30;0.30;;;10.20;90.20;;;;;;5053219;28;20033;-61
2022/02/25 04:52:20;;;;;;;2.88;0.63;;;10.20;90.30;;;;;;5039623;28;20477;-61
2022/02/25 04:54:45;;;;;;;0.93;0.63;;;10.20;90.20;;;;;;5058786;28;20028;-61
2022/02/25 04:57:11;;;;;;;3.10;0.88;;;10.20;90.20;;;;;;5055705;28;20041;-63
2022/02/25 04:59:37;;;;;;;0.43;0.43;;;10.20;90.20;;;;;;5056127;28;20025;-61
2022/02/25 05:02:03;;;;;;;1.35;0.77;;;10.20;90.20;;;;;;5056378;28;20512;-61
2022/02/25 05:04:29;;;;;;;0.60;0.60;;;10.20;90.30;;;;;;5057464;28;20021;-62
2022/02/25 05:06:55;;;;;;;1.50;0.70;;;10.20;90.20;;;;;;5058403;28;20067;-62
2022/02/25 05:09:20;;;;;;;3.40;0.75;;;10.20;90.20;;;;;;5038382;28;20036;-62
2022/02/25 05:11:46;;;;;;;1.17;0.70;;;10.10;90.20;;;;;;5059759;28;20029;-62
2022/02/25 05:22:24;;;;;;;1.52;0.73;;;10.20;90.10;;;;;;5048940;28;20044;-62
2022/02/25 05:24:50;;;;;;;1.13;0.98;;;10.20;90.20;;;;;;5055596;28;20404;-61
2022/02/25 05:27:16;;;;;;;1.08;0.80;;;10.20;90.20;;;;;;5054650;28;20032;-61
2022/02/25 05:29:42;;;;;;;2.13;0.70;;;10.20;90.10;;;;;;5055993;28;20032;-61
2022/02/25 05:32:08;;;;;;;1.38;0.77;;;10.10;90.20;;;;;;5039712;28;20043;-61
2022/02/25 05:34:34;;;;;;;2.88;0.90;;;10.10;90.10;;;;;;5060715;28;20055;-61
2022/02/25 05:37:00;;;;;;;3.53;1.25;;;10.10;90.00;;;;;;5054639;28;20051;-61
2022/02/25 05:39:25;;;;;;;4.15;0.75;;;10.20;90.10;;;;;;5056589;28;20466;-61
2022/02/25 05:41:51;;;;;;;3.08;1.13;;;10.20;90.00;;;;;;5059944;28;20362;-61
2022/02/25 05:44:17;;;;;;;0.88;0.70;;;10.10;90.10;;;;;;5043293;28;20123;-62
2022/02/25 05:46:44;;;;;;;3.10;0.73;;;10.10;89.50;;;;;;5060687;28;20029;-61
2022/02/25 05:49:09;;;;;;;8.55;1.60;;;10.10;89.80;;;;;;5057681;28;20045;-62
2022/02/25 05:51:35;;;;;;;1.67;0.60;;;10.10;89.40;;;;;;5059787;28;20331;-61
2022/02/25 05:54:01;;;;;;;1.85;0.80;;;10.00;89.20;;;;;;5063747;28;20056;-61
2022/02/25 05:56:26;;;;;;;2.17;0.88;;;10.00;89.40;;;;;;5057402;28;20123;-61
2022/02/25 05:58:53;;;;;;;10.48;1.33;;;10.10;89.40;;;;;;5046643;28;20037;-61
2022/02/25 06:01:18;;;;;;;1.50;0.60;;;10.00;89.30;;;;;;5061889;28;20051;-61
2022/02/25 06:03:44;;;;;;;3.45;1.08;;;10.00;89.20;;;;;;5067382;28;20040;-61
2022/02/25 06:06:10;;;;;;;2.92;0.80;;;10.10;89.20;;;;;;5056971;28;20021;-61
2022/02/25 06:08:36;;;;;;;3.00;0.85;;;10.10;89.10;;;;;;5060523;28;20108;-61
2022/02/25 06:11:02;;;;;;;1.90;0.63;;;10.10;89.20;;;;;;5054162;28;20085;-61
2022/02/25 06:13:28;;;;;;;1.85;0.70;;;10.10;89.20;;;;;;5060690;28;20594;-62
2022/02/25 06:15:54;;;;;;;7.15;1.33;;;10.10;89.10;;;;;;5057298;28;20117;-61
2022/02/25 06:18:19;;;;;;;4.22;1.20;;;10.10;89.20;;;;;;5061271;28;20041;-62
2022/02/25 06:20:45;;;;;;;1.02;0.77;;;10.10;89.10;;;;;;5056377;28;20505;-61
2022/02/25 06:23:11;;;;;;;2.00;1.42;;;10.10;89.20;;;;;;5055633;28;20052;-61
2022/02/25 06:25:37;;;;;;;3.75;1.00;;;10.10;89.00;;;;;;5064780;28;20016;-61
2022/02/25 06:28:04;;;;;;;2.33;0.70;;;10.10;89.00;;;;;;5045040;28;20021;-62
2022/02/25 06:30:30;;;;;;;2.90;1.10;;;10.10;89.00;;;;;;5060961;28;20017;-61
2022/02/25 06:32:55;;;;;;;2.65;0.95;;;10.10;88.80;;;;;;5062410;28;20388;-62
2022/02/25 06:35:23;;;;;;;3.80;1.40;;;10.10;89.10;;;;;;5061614;28;20245;-61
2022/02/25 06:37:50;;;;;;;4.20;0.93;;;10.10;89.00;;;;;;5062894;28;20036;-62
2022/02/25 06:40:15;;;;;;;4.35;1.30;;;10.10;89.20;;;;;;5063250;28;20025;-62
2022/02/25 06:42:41;;;;;;;4.40;0.82;;;10.10;89.30;;;;;;5061865;28;20024;-61
2022/02/25 06:45:08;;;;;;;1.40;0.80;;;10.10;89.70;;;;;;5062475;28;20029;-61
2022/02/25 06:47:33;;;;;;;1.77;0.90;;;10.10;89.40;;;;;;5059391;28;20141;-62
2022/02/25 06:49:59;;;;;;;5.32;1.20;;;10.10;89.20;;;;;;5063651;28;20040;-61
2022/02/25 06:52:25;;;;;;;2.25;0.82;;;10.10;89.10;;;;;;5059161;28;20047;-61
2022/02/25 06:54:50;;;;;;;1.05;0.75;;;10.10;89.10;;;;;;5060268;28;20087;-61
2022/02/25 06:57:16;;;;;;;1.15;1.05;;;10.10;89.10;;;;;;5063089;28;20116;-61
2022/02/25 06:59:42;;;;;;;3.00;1.23;;;10.10;89.30;;;;;;5053978;28;20029;-62
2022/02/25 07:02:08;;;;;;;2.35;0.90;;;10.10;89.10;;;;;;5049873;28;20432;-62
2022/02/25 07:04:34;;;;;;;2.03;0.90;;;10.10;89.20;;;;;;5033558;28;20533;-61
2022/02/25 07:07:00;;;;;;;1.30;1.02;;;10.10;89.30;;;;;;5051547;28;20060;-61
2022/02/25 07:09:26;;;;;;;3.17;0.95;;;10.20;89.40;;;;;;5051871;28;20115;-61
2022/02/25 07:11:51;;;;;;;4.38;1.08;;;10.20;89.50;;;;;;5051564;28;20018;-61
2022/02/25 07:14:17;;;;;;;6.50;1.05;;;10.20;89.50;;;;;;5040945;28;20111;-62
2022/02/25 07:16:44;;;;;;;2.78;0.80;;;10.20;89.40;;;;;;5071482;28;20060;-61
2022/02/25 07:19:09;;;;;;;4.00;1.15;;;10.20;89.60;;;;;;5071446;28;20095;-61
2022/02/25 07:21:35;;;;;;;7.18;1.30;;;10.20;89.50;;;;;;5071175;28;20028;-61
2022/02/25 07:24:03;;;;;;;3.42;0.93;;;10.20;89.30;;;;;;5070969;28;20024;-61
2022/02/25 07:26:29;;;;;;;5.55;1.20;;;10.20;89.60;;;;;;5071093;28;20052;-61
2022/02/25 07:28:54;;;;;;;5.03;0.77;;;10.20;89.40;;;;;;5069688;28;20485;-61
2022/02/25 07:31:20;;;;;;;1.48;0.70;;;10.30;89.30;;;;;;5070437;28;20029;-61
2022/02/25 07:33:46;;;;;;;7.95;1.30;;;10.30;89.30;;;;;;5071067;28;20060;-61
2022/02/25 07:36:11;;;;;;;1.90;1.00;;;10.40;89.30;;;;;;5069865;28;20275;-61
2022/02/25 07:38:37;;;;;;;2.63;0.90;;;10.40;88.70;;;;;;5071173;28;20407;-62
2022/02/25 07:41:03;;;;;;;3.40;0.65;;;10.40;89.00;;;;;;5071463;28;20535;-61
2022/02/25 07:43:29;;;;;;;1.88;0.63;;;10.50;88.00;;;;;;5072674;28;20382;-62
2022/02/25 07:45:54;;;;;;;0.30;0.30;;;10.60;87.80;;;;;;5069578;28;20045;-61
2022/02/25 07:48:21;;;;;;;2.25;1.17;;;10.70;87.60;;;;;;5070765;28;20036;-61
2022/02/25 07:50:48;;;;;;;0.88;0.57;;;10.70;87.70;;;;;;5070706;28;20043;-61
2022/02/25 07:53:15;;;;;;;3.78;0.70;;;10.80;88.40;;;;;;5070538;28;20025;-61
2022/02/25 07:55:40;;;;;;;0.70;0.70;;;10.70;88.10;;;;;;5052701;28;20177;-61
2022/02/25 07:58:06;;;;;;;0.40;0.40;;;10.70;88.30;;;;;;5070342;28;20548;-60
2022/02/25 08:00:32;;;;;;;3.88;1.10;;;10.70;88.00;;;;;;5050829;28;20118;-62
2022/02/25 08:03:01;;;;;;;0.45;0.45;;;10.80;87.40;;;;;;5052134;28;20017;-61
2022/02/25 08:05:27;;;;;;;2.55;0.90;;;10.80;89.30;;;;;;5057459;28;20478;-61
2022/02/25 08:07:53;;;;;;;0.95;0.40;;;10.80;88.10;;;;;;5050025;28;20075;-61
2022/02/25 08:10:19;;;;;;;1.85;0.45;;;10.80;87.50;;;;;;5032603;28;20466;-62
2022/02/25 08:12:45;;;;;;;4.90;0.80;;;10.80;87.80;;;;;;5050059;28;20470;-61
2022/02/25 08:15:11;;;;;;;2.10;0.57;;;10.80;87.90;;;;;;5058750;28;20029;-61
2022/02/25 08:17:37;;;;;;;6.00;0.80;;;10.80;88.10;;;;;;5070209;28;20055;-61
2022/02/25 08:20:04;;;;;;;0.80;0.80;;;10.80;88.60;;;;;;5070234;28;20040;-61
2022/02/25 08:22:30;;;;;;;1.65;0.57;;;10.90;87.00;;;;;;5070402;28;20021;-61
2022/02/25 08:24:56;;;;;;;0.20;0.20;;;10.90;86.90;;;;;;5052592;28;20119;-61
2022/02/25 08:27:22;;;;;;;0.32;0.32;;;11.00;88.20;;;;;;5053099;28;20116;-61
2022/02/25 08:29:47;;;;;;;8.27;0.98;;;11.00;87.30;;;;;;5062729;28;20132;-61
2022/02/25 08:32:13;;;;;;;2.45;0.80;;;10.90;87.80;;;;;;5049365;28;20087;-61
2022/02/25 08:34:39;;;;;;;0.80;0.77;;;11.00;87.20;;;;;;5049382;28;20032;-62
2022/02/25 08:37:06;;;;;;;2.97;1.05;;;10.90;88.30;;;;;;5048970;28;20035;-60
2022/02/25 08:39:32;;;;;;;0.93;0.93;;;11.00;88.20;;;;;;5048872;28;20024;-61
2022/02/25 08:41:58;;;;;;;0.77;0.70;;;11.00;88.20;;;;;;5050010;28;20474;-61
2022/02/25 08:44:24;;;;;;;3.55;1.10;;;10.90;90.50;;;;;;5049225;28;20123;-61
2022/02/25 08:46:50;;;;;;;2.70;0.85;;;10.90;88.40;;;;;;5050043;28;20028;-61
2022/02/25 08:49:16;;;;;;;5.65;0.90;;;11.00;89.20;;;;;;5049429;28;20104;-61
2022/02/25 08:51:43;;;;;;;5.03;1.25;;;11.00;89.10;;;;;;5031578;28;20144;-61
2022/02/25 08:54:10;;;;;;;0.60;0.60;;;11.00;89.20;;;;;;5049985;28;20064;-61
2022/02/25 08:56:38;;;;;;;4.65;0.90;;;10.90;89.90;;;;;;5049446;28;20112;-61
2022/02/25 08:59:04;;;;;;;6.53;0.63;;;10.90;88.70;;;;;;5049257;28;20083;-61
2022/02/25 09:01:32;;;;;;;1.90;0.60;;;11.00;89.60;;;;;;5049176;28;20036;-61
2022/02/25 09:04:01;;;;;;;10.15;0.50;;;11.00;88.30;;;;;;5049886;28;20029;-62
2022/02/25 09:06:28;;;;;;;0.63;0.47;;;11.00;89.60;;;;;;5032044;28;20067;-61
2022/02/25 09:08:54;;;;;;;4.38;0.55;;;11.00;88.90;;;;;;5050860;28;20021;-61
2022/02/25 09:11:20;;;;;;;5.32;0.40;;;11.00;88.20;;;;;;5051118;28;20024;-61
2022/02/25 09:13:52;;;;;;;0.45;0.45;;;11.00;88.50;;;;;;5052548;28;20029;-61
2022/02/25 09:16:18;;;;;;;0.28;0.28;;;11.10;89.10;;;;;;5049851;28;20036;-61
2022/02/25 09:18:43;;;;;;;0.70;0.40;;;11.10;87.90;;;;;;5048958;28;20041;-61
2022/02/25 09:21:09;;;;;;;2.70;0.90;;;11.10;88.50;;;;;;5048942;28;20127;-61
2022/02/25 09:23:35;;;;;;;1.33;0.80;;;11.10;87.90;;;;;;5049342;28;20052;-61
2022/02/25 09:26:01;;;;;;;2.72;0.45;;;11.10;89.50;;;;;;5051255;28;20103;-61
2022/02/25 09:28:26;;;;;;;2.92;0.80;;;11.10;87.40;;;;;;5053588;28;20378;-61
2022/02/25 09:30:53;;;;;;;5.78;0.60;;;11.10;88.60;;;;;;5045879;28;20437;-61
2022/02/25 09:33:19;;;;;;;0.75;0.75;;;11.20;88.80;;;;;;5073649;28;20489;-61
2022/02/25 09:35:45;;;;;;;1.42;0.73;;;11.20;87.80;;;;;;5073720;28;20408;-61
2022/02/25 09:38:10;;;;;;;3.80;1.20;;;11.10;88.80;;;;;;5055435;28;20393;-61
2022/02/25 09:40:38;;;;;;;3.45;1.00;;;11.20;89.10;;;;;;5073636;28;20477;-61
2022/02/25 09:43:04;;;;;;;4.68;0.75;;;11.10;88.40;;;;;;5055187;28;20024;-61
2022/02/25 09:45:30;;;;;;;2.47;1.05;;;11.10;89.10;;;;;;5053401;28;20111;-62
2022/02/25 09:47:56;;;;;;;4.07;0.82;;;11.10;90.00;;;;;;5055053;28;20120;-61
2022/02/25 09:50:23;;;;;;;1.27;0.77;;;11.10;90.20;;;;;;5073272;28;20032;-62
2022/02/25 09:52:49;;;;;;;1.02;0.80;;;11.10;90.10;;;;;;5055101;28;20032;-61
2022/02/25 09:55:18;;;;;;;2.35;1.00;;;11.00;90.80;;;;;;5072717;28;20159;-62
2022/02/25 09:57:44;;;;;;;7.55;0.98;;;11.00;90.10;;;;;;5072691;28;20423;-62
2022/02/25 10:00:10;;;;;;;1.50;0.90;;;11.00;90.70;;;;;;5065599;28;20024;-61
2022/02/25 10:02:48;;;;;;;3.22;0.90;;;11.10;89.70;;;;;;5033500;28;20056;-61
2022/02/25 10:05:19;;;;;;;7.35;1.30;;;11.10;91.10;;;;;;5044231;28;20025;-61
2022/02/25 10:07:45;;;;;;;5.07;0.70;;;11.10;88.80;;;;;;5051453;28;20436;-61
2022/02/25 10:10:13;;;;;;;4.70;1.15;;;11.10;90.80;;;;;;5034974;28;20025;-61
2022/02/25 10:12:55;;;;;;;4.03;0.90;;;11.20;90.10;;;;;;5053179;28;20036;-61
2022/02/25 10:15:34;;;;;;;1.05;0.50;;;11.20;90.00;;;;;;5052141;28;20094;-62
2022/02/25 10:18:25;;;;;;;1.20;0.65;;;11.20;89.10;;;;;;5052697;28;20025;-61
2022/02/25 10:21:09;;;;;;;7.78;0.80;;;11.20;88.70;;;;;;5050715;28;20432;-61
2022/02/25 10:23:37;;;;;;;5.00;1.52;;;11.20;89.90;;;;;;5052947;28;20163;-61
2022/02/25 10:26:16;;;;;;;4.63;1.00;;;11.30;90.50;;;;;;5051373;28;20032;-61
2022/02/25 10:28:45;;;;;;;4.80;0.70;;;11.20;90.10;;;;;;5052533;28;20159;-61
2022/02/25 10:34:32;;;;;;;0.75;0.50;;;11.30;89.80;;;;;;5065482;23;20611;-61
2022/02/25 10:37:00;;;;;;;9.80;0.70;;;11.30;89.40;;;;;;5051769;28;20136;-61
2022/02/25 10:39:29;;;;;;;3.30;0.93;;;11.40;88.70;;;;;;5052210;28;20032;-60
2022/02/25 10:42:19;;;;;;;9.00;0.85;;;11.40;89.00;;;;;;5052356;28;20482;-60
2022/02/25 10:44:53;;;;;;;6.43;0.80;;;11.40;88.50;;;;;;5051905;28;20029;-61
2022/02/25 10:47:35;;;;;;;3.78;0.50;;;11.50;88.70;;;;;;5047450;28;20029;-61
2022/02/25 10:50:12;;;;;;;6.22;1.25;;;11.50;90.20;;;;;;5049380;28;20429;-60
2022/02/25 10:52:39;;;;;;;1.92;0.88;;;11.60;90.40;;;;;;5044459;28;20021;-60
2022/02/25 10:55:19;;;;;;;3.42;0.50;;;11.50;87.50;;;;;;5028063;28;20013;-61
2022/02/25 10:57:45;;;;;;;1.10;0.55;;;11.50;88.30;;;;;;5052460;28;20045;-61
2022/02/25 11:00:14;;;;;;;1.98;0.65;;;11.50;89.40;;;;;;5052736;28;20036;-61
2022/02/25 11:02:47;;;;;;;3.95;0.90;;;11.40;89.10;;;;;;5054650;28;20064;-61
2022/02/25 11:05:16;;;;;;;0.40;0.40;;;11.40;89.30;;;;;;5034672;28;20025;-61
2022/02/25 11:07:48;;;;;;;2.10;0.60;;;11.30;89.50;;;;;;5051482;28;20116;-62
2022/02/25 11:10:15;;;;;;;1.13;0.63;;;11.30;90.00;;;;;;5052289;28;20432;-61
2022/02/25 11:12:44;;;;;;;0.20;0.20;;;11.30;89.40;;;;;;5046801;28;20396;-61
2022/02/25 11:15:13;;;;;;;5.82;0.70;;;11.40;88.70;;;;;;5053854;28;20029;-62
2022/02/25 11:17:42;;;;;;;4.13;0.80;;;11.40;87.00;;;;;;5034451;28;20041;-60
2022/02/25 11:20:08;;;;;;;0.52;0.52;;;11.50;87.60;;;;;;5038228;28;20490;-62
2022/02/25 11:22:39;;;;;;;5.93;0.60;;;11.50;86.90;;;;;;5051594;28;20024;-60
2022/02/25 11:25:14;;;;;;;1.60;0.70;;;11.50;87.10;;;;;;5051634;28;20032;-61
2022/02/25 11:27:41;;;;;;;3.75;1.10;;;11.50;86.30;;;;;;5033800;28;20504;-61
2022/02/25 11:30:33;;;;;;;3.10;1.05;;;11.50;86.80;;;;;;5033644;28;20190;-60
2022/02/25 11:33:04;;;;;;;0.57;0.57;;;11.70;86.90;;;;;;5036189;28;20111;-61
2022/02/25 11:35:33;;;;;;;2.95;0.68;;;11.80;86.70;;;;;;5051152;28;20029;-60
2022/02/25 11:38:09;;;;;;;2.70;0.52;;;11.90;87.00;;;;;;5032817;28;20120;-61
2022/02/25 11:40:59;;;;;;;5.65;0.70;;;11.90;86.50;;;;;;5051275;28;20635;-61
2022/02/25 11:43:52;;;;;;;0.60;0.30;;;11.90;86.50;;;;;;5050835;28;20025;-61
2022/02/25 11:46:27;;;;;;;2.70;0.65;;;11.90;85.20;;;;;;5037019;28;20029;-61
2022/02/25 11:49:13;;;;;;;1.20;0.68;;;12.00;87.20;;;;;;5050406;28;20422;-60
2022/02/25 11:51:51;;;;;;;0.30;0.30;;;12.00;87.70;;;;;;5050256;28;20515;-60
2022/02/25 11:54:31;;;;;;;5.85;0.65;;;12.00;87.30;;;;;;5051753;28;20028;-62
2022/02/25 11:57:08;;;;;;;2.55;1.00;;;12.00;86.30;;;;;;5051051;28;20280;-61
2022/02/25 11:59:36;;;;;;;7.13;1.85;;;11.90;86.80;;;;;;5050716;28;20021;-61
2022/02/25 12:02:32;;;;;;;0.20;0.20;;;11.90;86.60;;;;;;5045564;28;20059;-61
2022/02/25 12:05:03;;;;;;;0.73;0.70;;;11.90;86.90;;;;;;5033014;28;20032;-61
2022/02/25 12:07:47;;;;;;;4.13;0.80;;;11.90;87.00;;;;;;5032155;28;20032;-60
2022/02/25 12:10:13;;;;;;;4.93;0.65;;;11.90;86.30;;;;;;5045915;28;20044;-61
2022/02/25 12:12:39;;;;;;;3.20;0.70;;;11.90;86.00;;;;;;5031820;28;20033;-61
2022/02/25 12:15:16;;;;;;;2.58;0.90;;;11.80;87.80;;;;;;5050155;28;20025;-61
2022/02/25 12:17:56;;;;;;;0.45;0.45;;;11.70;88.20;;;;;;5047622;28;20044;-61
2022/02/25 12:20:23;;;;;;;;;;;11.70;87.10;;;;;;5032231;28;20571;-61
2022/02/25 12:23:09;;;;;;;1.40;0.57;;;11.90;87.20;;;;;;5049000;28;19908;-60
2022/02/25 12:25:41;;;;;;;2.33;1.10;;;12.00;86.60;;;;;;5024865;28;20291;-61
2022/02/25 12:28:28;;;;;;;2.78;0.55;;;11.90;85.80;;;;;;5050763;28;20428;-60
2022/02/25 12:31:06;;;;;;;12.25;1.15;;;11.80;88.20;;;;;;5050268;28;20029;-62
2022/02/25 12:33:33;;;;;;;1.85;0.50;;;11.80;88.00;;;;;;5048486;28;20069;-61
2022/02/25 12:36:03;;;;;;;2.38;0.90;;;11.80;88.40;;;;;;5049676;28;20029;-61
2022/02/25 12:38:30;;;;;;;1.15;0.70;;;11.70;88.50;;;;;;5050011;28;20032;-61
2022/02/25 12:41:12;;;;;;;1.83;0.95;;;11.70;89.20;;;;;;5050111;28;20052;-61
2022/02/25 12:43:58;;;;;;;0.50;0.50;;;11.60;89.50;;;;;;5031789;28;20032;-61
2022/02/25 12:46:38;;;;;;;0.52;0.47;;;11.60;89.10;;;;;;5049895;28;20108;-61
2022/02/25 12:49:05;;;;;;;;;;;11.60;89.30;;;;;;5047690;28;20389;-61
2022/02/25 12:51:31;;;;;;;5.13;1.15;;;11.50;89.40;;;;;;5049194;28;19905;-62
2022/02/25 12:54:02;;;;;;;1.10;0.57;;;11.50;89.10;;;;;;5048952;28;20544;-62
2022/02/25 12:56:40;;;;;;;0.70;0.55;;;11.50;89.00;;;;;;5049250;28;20050;-61
2022/02/25 12:59:19;;;;;;;1.30;0.73;;;11.50;89.30;;;;;;5049749;28;20063;-61
2022/02/25 13:01:53;;;;;;;0.50;0.50;;;11.50;89.10;;;;;;5048930;28;20033;-61
2022/02/25 13:04:27;;;;;;;1.95;0.80;;;11.50;89.00;;;;;;5033013;28;20040;-62
2022/02/25 13:06:56;;;;;;;2.47;0.80;;;11.50;88.90;;;;;;5027551;28;20069;-61
2022/02/25 13:09:29;;;;;;;0.70;0.70;;;11.50;89.30;;;;;;5032074;28;20036;-61
2022/02/25 13:12:02;;;;;;;1.30;0.70;;;11.40;88.90;;;;;;5049390;28;20069;-61
2022/02/25 13:14:34;;;;;;;2.50;0.70;;;11.40;89.00;;;;;;5031626;28;20493;-61
2022/02/25 13:17:20;;;;;;;3.90;1.02;;;11.40;88.90;;;;;;5048632;28;20560;-61
2022/02/25 13:19:46;;;;;;;0.82;0.55;;;11.40;88.90;;;;;;5012257;28;20111;-61
2022/02/25 13:22:28;;;;;;;6.13;1.08;;;11.40;89.40;;;;;;5028899;28;20143;-61
2022/02/25 13:25:05;;;;;;;1.73;0.90;;;11.40;88.90;;;;;;5043153;28;20538;-61
2022/02/25 13:27:55;;;;;;;2.78;0.80;;;11.30;88.50;;;;;;5049064;28;20093;-61